Time;durP1;ratioP1;P1;durP2;ratioP2;P2;SDS_P1;SDS_P2;PMS_P1;PMS_P2;Temp;Humidity;BMP_temperature;BMP_pressure;BME280_temperature;BME280_humidity;BME280_pressure;Samples;Min_cycle;Max_cycle;Signal;HPM_P1;HPM_P2
2022/03/08 00:00:55;;;;;;;0.00;0.00;;;;;20.90;100487.00;;;;5107243;28;20047;-80
2022/03/08 00:03:28;;;;;;;0.00;0.00;;;;;20.80;100485.00;;;;5106759;28;20514;-78
2022/03/08 00:06:00;;;;;;;0.00;0.00;;;;;20.90;100482.00;;;;5107133;28;20043;-77
2022/03/08 00:08:40;;;;;;;0.00;0.00;;;;;20.80;100478.00;;;;5090843;28;20422;-76
2022/03/08 00:11:16;;;;;;;0.00;0.00;;;;;20.80;100480.00;;;;5106648;28;20052;-77
2022/03/08 00:13:50;;;;;;;0.00;0.00;;;;;20.80;100466.00;;;;5105624;28;20054;-75
2022/03/08 00:16:25;;;;;;;0.00;0.00;;;;;20.90;100484.00;;;;5089581;28;20054;-78
2022/03/08 00:18:59;;;;;;;0.00;0.00;;;;;20.90;100479.00;;;;5106923;28;20035;-77
2022/03/08 00:21:37;;;;;;;0.00;0.00;;;;;20.90;100497.00;;;;5106887;28;20529;-80
2022/03/08 00:24:16;;;;;;;0.00;0.00;;;;;20.90;100491.00;;;;5105102;28;20048;-78
2022/03/08 00:26:48;;;;;;;0.00;0.00;;;;;20.90;100496.00;;;;5106839;28;20070;-78
2022/03/08 00:29:21;;;;;;;0.00;0.00;;;;;20.80;100489.00;;;;5107229;28;20140;-79
2022/03/08 00:31:51;;;;;;;0.00;0.00;;;;;20.80;100480.00;;;;5105815;28;20063;-81
2022/03/08 00:34:23;;;;;;;0.00;0.00;;;;;20.80;100508.00;;;;5107329;28;20503;-80
2022/03/08 00:36:59;;;;;;;0.00;0.00;;;;;20.80;100504.00;;;;5106921;28;20058;-80
2022/03/08 00:39:30;;;;;;;0.00;0.00;;;;;20.80;100519.00;;;;5106637;28;20054;-81
2022/03/08 00:42:02;;;;;;;0.00;0.00;;;;;20.80;100500.00;;;;5105453;28;20080;-81
2022/03/08 00:44:35;;;;;;;0.00;0.00;;;;;20.80;100484.00;;;;5105499;28;20047;-80
2022/03/08 00:47:08;;;;;;;0.00;0.00;;;;;20.80;100479.00;;;;5104795;28;20399;-80
2022/03/08 00:49:44;;;;;;;0.00;0.00;;;;;20.80;100479.00;;;;5106471;28;20039;-79
2022/03/08 00:52:16;;;;;;;;;;;;;20.80;100469.00;;;;5107782;28;20089;-79
2022/03/08 00:55:04;;;;;;;0.00;0.00;;;;;20.80;100467.00;;;;5106244;28;19984;-79
2022/03/08 00:57:39;;;;;;;0.00;0.00;;;;;20.80;100462.00;;;;5104798;28;20062;-81
2022/03/08 01:00:15;;;;;;;0.00;0.00;;;;;20.80;100471.00;;;;5105685;28;20086;-77
2022/03/08 01:02:46;;;;;;;0.00;0.00;;;;;20.80;100460.00;;;;5105123;28;20048;-78
2022/03/08 01:05:19;;;;;;;0.00;0.00;;;;;20.80;100458.00;;;;5105365;28;20093;-79
2022/03/08 01:07:55;;;;;;;0.00;0.00;;;;;20.80;100458.00;;;;5089141;28;20054;-80
2022/03/08 01:10:27;;;;;;;0.55;0.55;;;;;20.80;100459.00;;;;5108649;28;20051;-79
2022/03/08 01:12:59;;;;;;;0.00;0.00;;;;;20.80;100454.00;;;;5109277;28;20051;-81
2022/03/08 01:15:31;;;;;;;0.00;0.00;;;;;20.80;100439.00;;;;5110647;28;20036;-78
2022/03/08 01:18:02;;;;;;;0.00;0.00;;;;;20.80;100462.00;;;;5076078;28;20056;-77
2022/03/08 01:20:32;;;;;;;0.00;0.00;;;;;20.80;100455.00;;;;5092308;28;20101;-80
2022/03/08 01:23:03;;;;;;;0.00;0.00;;;;;20.80;100460.00;;;;5109868;28;20586;-77
2022/03/08 01:25:36;;;;;;;0.00;0.00;;;;;20.80;100463.00;;;;5110526;28;20351;-81
2022/03/08 01:28:07;;;;;;;0.00;0.00;;;;;20.80;100443.00;;;;5109959;28;20514;-78
2022/03/08 01:30:37;;;;;;;0.00;0.00;;;;;20.80;100436.00;;;;5110229;28;20040;-81
2022/03/08 01:33:07;;;;;;;0.00;0.00;;;;;20.80;100439.00;;;;5109907;28;20059;-81
2022/03/08 01:35:36;;;;;;;0.00;0.00;;;;;20.80;100446.00;;;;5110173;28;20051;-79
2022/03/08 01:38:06;;;;;;;0.00;0.00;;;;;20.80;100453.00;;;;5092496;28;20059;-79
2022/03/08 01:40:35;;;;;;;0.00;0.00;;;;;20.80;100446.00;;;;5110115;28;20050;-78
2022/03/08 01:43:05;;;;;;;0.00;0.00;;;;;20.80;100426.00;;;;5110253;28;20079;-81
2022/03/08 01:45:34;;;;;;;0.00;0.00;;;;;20.80;100414.00;;;;5109809;28;20498;-81
2022/03/08 01:48:03;;;;;;;0.00;0.00;;;;;20.80;100404.00;;;;5109941;28;20075;-78
2022/03/08 01:50:33;;;;;;;0.00;0.00;;;;;20.70;100403.00;;;;5108429;28;20052;-81
2022/03/08 01:53:03;;;;;;;0.00;0.00;;;;;20.70;100382.00;;;;5109889;28;20050;-81
2022/03/08 01:55:33;;;;;;;0.00;0.00;;;;;20.70;100398.00;;;;5109762;28;20043;-82
2022/03/08 01:58:03;;;;;;;0.00;0.00;;;;;20.80;100400.00;;;;5108885;28;20497;-82
2022/03/08 02:00:34;;;;;;;0.00;0.00;;;;;20.80;100380.00;;;;5108177;28;20437;-80
2022/03/08 02:03:04;;;;;;;0.00;0.00;;;;;20.80;100391.00;;;;5109747;28;20089;-79
2022/03/08 02:05:34;;;;;;;0.00;0.00;;;;;20.90;100389.00;;;;5109686;28;20039;-81
2022/03/08 02:08:04;;;;;;;0.00;0.00;;;;;20.80;100393.00;;;;5109656;28;20054;-78
2022/03/08 02:10:34;;;;;;;0.00;0.00;;;;;20.80;100387.00;;;;5109669;28;20501;-79
2022/03/08 02:13:03;;;;;;;0.00;0.00;;;;;20.80;100383.00;;;;5109185;28;20047;-78
2022/03/08 02:15:33;;;;;;;0.00;0.00;;;;;20.80;100383.00;;;;5109235;28;20047;-77
2022/03/08 02:18:02;;;;;;;0.00;0.00;;;;;20.70;100360.00;;;;5109571;28;20101;-79
2022/03/08 02:20:32;;;;;;;0.00;0.00;;;;;20.70;100353.00;;;;5109468;28;20044;-80
2022/03/08 02:23:01;;;;;;;0.38;0.25;;;;;20.70;100348.00;;;;5108961;28;20134;-78
2022/03/08 02:25:31;;;;;;;0.00;0.00;;;;;20.70;100356.00;;;;5109121;28;20123;-80
2022/03/08 02:28:00;;;;;;;0.00;0.00;;;;;20.60;100320.00;;;;5108667;28;20528;-83
2022/03/08 02:30:29;;;;;;;0.00;0.00;;;;;20.60;100319.00;;;;5109216;28;20040;-82
2022/03/08 02:32:59;;;;;;;0.00;0.00;;;;;20.60;100315.00;;;;5109161;28;20547;-81
2022/03/08 02:35:31;;;;;;;0.00;0.00;;;;;20.60;100305.00;;;;5109789;28;20043;-81
2022/03/08 02:38:04;;;;;;;0.00;0.00;;;;;20.60;100291.00;;;;5107862;28;20085;-81
2022/03/08 02:40:36;;;;;;;0.00;0.00;;;;;20.60;100308.00;;;;5109467;28;20414;-79
2022/03/08 02:43:08;;;;;;;0.00;0.00;;;;;20.60;100297.00;;;;5109274;28;20647;-81
2022/03/08 02:45:38;;;;;;;0.00;0.00;;;;;20.70;100291.00;;;;5108562;28;20506;-77
2022/03/08 02:48:09;;;;;;;0.00;0.00;;;;;20.70;100266.00;;;;5109021;28;20043;-79
2022/03/08 02:50:38;;;;;;;0.00;0.00;;;;;20.60;100267.00;;;;5108559;28;20418;-80
2022/03/08 02:53:08;;;;;;;0.00;0.00;;;;;20.60;100265.00;;;;5109005;28;20052;-81
2022/03/08 02:55:37;;;;;;;0.00;0.00;;;;;20.60;100253.00;;;;5108608;28;20051;-78
2022/03/08 02:58:07;;;;;;;0.00;0.00;;;;;20.50;100220.00;;;;5108371;28;20036;-80
2022/03/08 03:00:37;;;;;;;0.00;0.00;;;;;20.50;100226.00;;;;5108221;28;20100;-82
2022/03/08 03:03:07;;;;;;;0.00;0.00;;;;;20.50;100231.00;;;;5108918;28;20047;-81
2022/03/08 03:05:37;;;;;;;0.00;0.00;;;;;20.50;100223.00;;;;5108837;28;20051;-79
2022/03/08 03:08:08;;;;;;;0.00;0.00;;;;;20.50;100229.00;;;;5108646;28;20049;-81
2022/03/08 03:10:37;;;;;;;0.00;0.00;;;;;20.50;100234.00;;;;5108353;28;20416;-80
2022/03/08 03:13:07;;;;;;;0.00;0.00;;;;;20.50;100233.00;;;;5108765;28;20047;-77
2022/03/08 03:15:36;;;;;;;0.00;0.00;;;;;20.50;100218.00;;;;5107609;28;20044;-81
2022/03/08 03:18:09;;;;;;;0.00;0.00;;;;;20.50;100217.00;;;;5108102;28;20094;-79
2022/03/08 03:20:39;;;;;;;0.00;0.00;;;;;20.50;100210.00;;;;5108696;28;20391;-83
2022/03/08 03:23:08;;;;;;;0.00;0.00;;;;;20.40;100213.00;;;;5106734;28;20125;-79
2022/03/08 03:25:38;;;;;;;0.00;0.00;;;;;20.40;100195.00;;;;5107922;28;20505;-82
2022/03/08 03:28:07;;;;;;;0.00;0.00;;;;;20.50;100190.00;;;;5107439;28;20040;-80
2022/03/08 03:30:38;;;;;;;0.00;0.00;;;;;20.50;100175.00;;;;5106333;28;20578;-80
2022/03/08 03:33:07;;;;;;;0.00;0.00;;;;;20.40;100156.00;;;;5107418;28;20426;-79
2022/03/08 03:35:37;;;;;;;0.00;0.00;;;;;20.40;100146.00;;;;5107331;28;20044;-77
2022/03/08 03:38:06;;;;;;;0.00;0.00;;;;;20.40;100147.00;;;;5107747;28;20577;-79
2022/03/08 03:40:36;;;;;;;0.00;0.00;;;;;20.60;100123.00;;;;5107344;28;20647;-79
2022/03/08 03:43:05;;;;;;;0.00;0.00;;;;;20.60;100118.00;;;;5107910;28;20104;-81
2022/03/08 03:45:35;;;;;;;0.00;0.00;;;;;20.60;100125.00;;;;5107995;28;20058;-81
2022/03/08 03:48:04;;;;;;;0.00;0.00;;;;;20.60;100122.00;;;;5107850;28;20047;-80
2022/03/08 03:50:34;;;;;;;0.00;0.00;;;;;20.70;100129.00;;;;5108106;28;20045;-81
2022/03/08 03:53:03;;;;;;;0.00;0.00;;;;;20.70;100123.00;;;;5106064;28;20047;-77
2022/03/08 03:55:33;;;;;;;0.00;0.00;;;;;20.60;100121.00;;;;5107815;28;20058;-81
2022/03/08 03:58:03;;;;;;;0.00;0.00;;;;;20.60;100124.00;;;;5107406;28;20414;-80
2022/03/08 04:00:32;;;;;;;0.00;0.00;;;;;20.60;100121.00;;;;5107528;28;20050;-82
2022/03/08 04:03:01;;;;;;;0.00;0.00;;;;;20.70;100135.00;;;;5106942;28;20035;-80
2022/03/08 04:05:33;;;;;;;0.00;0.00;;;;;20.80;100152.00;;;;5107097;28;20069;-77
2022/03/08 04:08:02;;;;;;;;;;;;;21.00;100159.00;;;;5108031;28;20039;-76
2022/03/08 04:10:32;;;;;;;0.00;0.00;;;;;21.20;100153.00;;;;5107722;28;19923;-76
2022/03/08 04:13:02;;;;;;;0.00;0.00;;;;;21.30;100162.00;;;;5108333;28;20035;-78
2022/03/08 04:15:31;;;;;;;0.00;0.00;;;;;21.40;100154.00;;;;5106873;28;20043;-78
2022/03/08 04:18:01;;;;;;;0.00;0.00;;;;;21.40;100140.00;;;;5107268;28;20197;-80
2022/03/08 04:20:30;;;;;;;0.00;0.00;;;;;21.40;100154.00;;;;5107430;28;20452;-81
2022/03/08 04:22:59;;;;;;;0.00;0.00;;;;;21.50;100154.00;;;;5106771;28;20462;-77
2022/03/08 04:25:29;;;;;;;0.00;0.00;;;;;21.60;100159.00;;;;5107343;28;20051;-78
2022/03/08 04:27:59;;;;;;;0.00;0.00;;;;;21.70;100161.00;;;;5107113;28;20043;-81
2022/03/08 04:30:28;;;;;;;0.00;0.00;;;;;21.70;100164.00;;;;5106900;28;20047;-79
2022/03/08 04:32:58;;;;;;;0.00;0.00;;;;;21.60;100196.00;;;;5107380;28;20519;-79
2022/03/08 04:35:27;;;;;;;0.00;0.00;;;;;21.70;100214.00;;;;5107330;28;20043;-79
2022/03/08 04:37:57;;;;;;;0.00;0.00;;;;;21.80;100211.00;;;;5107326;28;20502;-77
2022/03/08 04:40:27;;;;;;;0.00;0.00;;;;;21.90;100219.00;;;;5106855;28;20048;-79
2022/03/08 04:42:56;;;;;;;0.00;0.00;;;;;21.80;100242.00;;;;5106931;28;20051;-78
2022/03/08 04:45:25;;;;;;;0.00;0.00;;;;;21.80;100265.00;;;;5111045;28;20755;-78
2022/03/08 04:47:55;;;;;;;0.00;0.00;;;;;21.70;100269.00;;;;5111020;28;20035;-78
2022/03/08 04:50:24;;;;;;;0.00;0.00;;;;;21.50;100265.00;;;;5111075;28;20051;-78
2022/03/08 04:52:54;;;;;;;0.00;0.00;;;;;21.50;100286.00;;;;5111111;28;20399;-78
2022/03/08 04:55:30;;;;;;;0.00;0.00;;;;;21.40;100285.00;;;;5111159;28;20051;-78
2022/03/08 04:58:05;;;;;;;0.00;0.00;;;;;21.40;100292.00;;;;5109819;28;20051;-78
2022/03/08 05:00:35;;;;;;;0.00;0.00;;;;;21.30;100300.00;;;;5111261;28;20444;-78
2022/03/08 05:03:05;;;;;;;0.00;0.00;;;;;21.30;100325.00;;;;5110793;28;20054;-78
2022/03/08 05:05:34;;;;;;;0.00;0.00;;;;;21.20;100335.00;;;;5110513;28;20050;-78
2022/03/08 05:08:04;;;;;;;0.00;0.00;;;;;21.20;100352.00;;;;5110414;28;20054;-77
2022/03/08 05:10:34;;;;;;;0.00;0.00;;;;;21.30;100354.00;;;;5111489;28;20068;-78
2022/03/08 05:13:03;;;;;;;0.00;0.00;;;;;21.20;100355.00;;;;5111162;28;20048;-78
2022/03/08 05:15:33;;;;;;;0.00;0.00;;;;;21.20;100371.00;;;;5110675;27;20043;-77
2022/03/08 05:18:03;;;;;;;0.00;0.00;;;;;21.20;100384.00;;;;5111128;28;20051;-78
2022/03/08 05:20:33;;;;;;;0.00;0.00;;;;;21.20;100388.00;;;;5110320;28;20052;-78
2022/03/08 05:23:03;;;;;;;0.00;0.00;;;;;21.30;100402.00;;;;5110632;28;20533;-78
2022/03/08 05:25:32;;;;;;;6.88;0.57;;;;;21.40;100410.00;;;;5110155;28;20502;-77
2022/03/08 05:28:02;;;;;;;0.00;0.00;;;;;21.40;100420.00;;;;5110537;28;20051;-78
2022/03/08 05:30:32;;;;;;;0.00;0.00;;;;;21.30;100413.00;;;;5110436;28;20580;-78
2022/03/08 05:33:01;;;;;;;0.00;0.00;;;;;21.30;100410.00;;;;5110085;28;20101;-78
2022/03/08 05:35:31;;;;;;;0.00;0.00;;;;;21.30;100399.00;;;;5109887;27;20047;-77
2022/03/08 05:38:01;;;;;;;0.00;0.00;;;;;21.30;100406.00;;;;5110693;28;20042;-78
2022/03/08 05:40:31;;;;;;;0.00;0.00;;;;;21.20;100400.00;;;;5110238;28;20517;-78
2022/03/08 05:43:01;;;;;;;0.00;0.00;;;;;21.20;100404.00;;;;5110044;28;20044;-78
2022/03/08 05:45:31;;;;;;;0.10;0.10;;;;;21.10;100408.00;;;;5109721;28;20089;-78
2022/03/08 05:48:00;;;;;;;0.00;0.00;;;;;21.10;100398.00;;;;5108855;28;20055;-78
2022/03/08 05:50:30;;;;;;;0.00;0.00;;;;;21.10;100422.00;;;;5110241;28;20056;-78
2022/03/08 05:52:59;;;;;;;0.00;0.00;;;;;20.90;100391.00;;;;5110178;28;20046;-78
2022/03/08 05:55:29;;;;;;;0.00;0.00;;;;;20.80;100390.00;;;;5109381;28;20120;-78
2022/03/08 05:57:58;;;;;;;0.00;0.00;;;;;20.70;100400.00;;;;5109793;28;20048;-78
2022/03/08 06:00:28;;;;;;;0.00;0.00;;;;;20.70;100412.00;;;;5109746;28;20517;-78
2022/03/08 06:02:58;;;;;;;0.00;0.00;;;;;20.70;100431.00;;;;5109719;28;20528;-78
2022/03/08 06:17:17;;;;;;;0.00;0.00;;;;;20.70;100411.00;;;;5124766;27;21015;-79
2022/03/08 06:19:47;;;;;;;0.00;0.00;;;;;20.70;100384.00;;;;5124787;27;20035;-80
2022/03/08 06:22:16;;;;;;;0.00;0.00;;;;;20.70;100398.00;;;;5125193;27;20504;-80
2022/03/08 06:24:46;;;;;;;0.00;0.00;;;;;20.70;100374.00;;;;5124295;27;20047;-80
2022/03/08 06:27:15;;;;;;;0.00;0.00;;;;;20.50;100371.00;;;;5123362;28;20052;-80
2022/03/08 06:29:44;;;;;;;0.00;0.00;;;;;20.50;100386.00;;;;5106406;28;20047;-80
2022/03/08 06:32:14;;;;;;;0.00;0.00;;;;;20.50;100376.00;;;;5123214;28;20055;-80
2022/03/08 06:34:43;;;;;;;0.00;0.00;;;;;20.40;100396.00;;;;5124730;27;20035;-79
2022/03/08 06:37:13;;;;;;;0.00;0.00;;;;;20.40;100395.00;;;;5123111;28;20047;-80
2022/03/08 06:39:43;;;;;;;0.00;0.00;;;;;20.30;100385.00;;;;5123202;28;20074;-80
2022/03/08 06:42:13;;;;;;;0.00;0.00;;;;;20.40;100393.00;;;;5124127;27;20039;-80
2022/03/08 06:44:43;;;;;;;0.00;0.00;;;;;20.40;100388.00;;;;5122560;28;20043;-80
2022/03/08 06:47:12;;;;;;;0.00;0.00;;;;;20.40;100368.00;;;;5122947;28;20047;-80
2022/03/08 06:49:42;;;;;;;0.00;0.00;;;;;20.30;100385.00;;;;5123838;27;20492;-80
2022/03/08 06:52:12;;;;;;;0.00;0.00;;;;;20.30;100386.00;;;;5124386;27;20047;-80
2022/03/08 06:54:42;;;;;;;0.00;0.00;;;;;20.30;100399.00;;;;5123128;28;20052;-80
2022/03/08 06:57:12;;;;;;;0.00;0.00;;;;;20.30;100395.00;;;;5122898;28;20054;-80
2022/03/08 06:59:41;;;;;;;0.00;0.00;;;;;20.40;100412.00;;;;5122178;28;20047;-80
2022/03/08 07:02:10;;;;;;;0.00;0.00;;;;;20.50;100387.00;;;;5122664;28;20138;-80
2022/03/08 07:04:40;;;;;;;0.00;0.00;;;;;20.40;100379.00;;;;5124526;27;20452;-80
2022/03/08 07:07:09;;;;;;;0.00;0.00;;;;;20.40;100384.00;;;;5102044;28;20130;-80
2022/03/08 07:09:39;;;;;;;0.00;0.00;;;;;20.40;100376.00;;;;5103108;28;20043;-79
2022/03/08 07:12:09;;;;;;;0.00;0.00;;;;;20.40;100379.00;;;;5103270;28;20061;-80
2022/03/08 07:14:38;;;;;;;0.00;0.00;;;;;20.40;100372.00;;;;5101818;28;20077;-79
2022/03/08 07:17:07;;;;;;;0.00;0.00;;;;;20.40;100382.00;;;;5095895;28;20464;-79
2022/03/08 07:19:37;;;;;;;0.00;0.00;;;;;20.40;100376.00;;;;5090593;28;20044;-80
2022/03/08 07:22:06;;;;;;;0.00;0.00;;;;;20.40;100363.00;;;;5105433;28;20443;-80
2022/03/08 07:24:36;;;;;;;0.00;0.00;;;;;20.30;100390.00;;;;5105705;28;20055;-79
2022/03/08 07:27:08;;;;;;;0.00;0.00;;;;;20.30;100395.00;;;;5089570;28;20502;-80
2022/03/08 07:29:38;;;;;;;0.00;0.00;;;;;20.20;100397.00;;;;5089722;28;20036;-80
2022/03/08 07:32:07;;;;;;;0.00;0.00;;;;;20.20;100378.00;;;;5105731;28;20047;-80
2022/03/08 07:34:37;;;;;;;0.00;0.00;;;;;20.20;100386.00;;;;5089374;28;20856;-79
2022/03/08 07:37:07;;;;;;;0.00;0.00;;;;;20.20;100390.00;;;;5104779;28;20607;-79
2022/03/08 07:39:37;;;;;;;0.00;0.00;;;;;20.20;100390.00;;;;5104399;28;20498;-80
2022/03/08 07:42:06;;;;;;;0.00;0.00;;;;;20.10;100372.00;;;;5088989;28;21162;-80
2022/03/08 07:44:37;;;;;;;0.00;0.00;;;;;20.10;100399.00;;;;5104396;28;20543;-80
2022/03/08 07:47:08;;;;;;;0.00;0.00;;;;;20.10;100399.00;;;;5089469;28;20445;-80
2022/03/08 07:49:38;;;;;;;0.00;0.00;;;;;20.10;100407.00;;;;5089326;28;20109;-80
2022/03/08 07:52:07;;;;;;;0.00;0.00;;;;;20.10;100401.00;;;;5087593;28;20048;-80
2022/03/08 07:54:37;;;;;;;0.00;0.00;;;;;20.10;100402.00;;;;5088941;28;20050;-80
2022/03/08 07:57:06;;;;;;;0.00;0.00;;;;;20.10;100421.00;;;;5104418;28;20069;-80
2022/03/08 07:59:35;;;;;;;0.00;0.00;;;;;20.10;100440.00;;;;5089671;28;20040;-80
2022/03/08 08:02:05;;;;;;;0.00;0.00;;;;;20.30;100434.00;;;;5089270;28;20043;-80
2022/03/08 08:04:35;;;;;;;0.00;0.00;;;;;20.20;100429.00;;;;5088326;28;20039;-80
2022/03/08 08:07:04;;;;;;;0.00;0.00;;;;;20.20;100444.00;;;;5103943;28;20055;-81
2022/03/08 08:09:34;;;;;;;0.00;0.00;;;;;20.20;100438.00;;;;5103893;28;20063;-80
2022/03/08 08:12:06;;;;;;;0.00;0.00;;;;;20.10;100418.00;;;;5103966;28;20055;-80
2022/03/08 08:14:36;;;;;;;0.00;0.00;;;;;20.10;100428.00;;;;5088469;28;20587;-81
2022/03/08 08:17:06;;;;;;;0.00;0.00;;;;;20.00;100439.00;;;;5103413;28;20051;-80
2022/03/08 08:19:36;;;;;;;0.00;0.00;;;;;20.00;100446.00;;;;5088544;28;20044;-80
2022/03/08 08:22:05;;;;;;;0.00;0.00;;;;;20.00;100448.00;;;;5104433;28;20048;-80
2022/03/08 08:24:35;;;;;;;0.00;0.00;;;;;20.00;100429.00;;;;5087682;28;20060;-80
2022/03/08 08:27:04;;;;;;;0.00;0.00;;;;;20.00;100444.00;;;;5088203;28;20050;-80
2022/03/08 08:29:34;;;;;;;0.00;0.00;;;;;19.90;100447.00;;;;5087015;28;20060;-80
2022/03/08 08:32:03;;;;;;;0.00;0.00;;;;;19.90;100443.00;;;;5103682;28;20036;-80
2022/03/08 08:34:33;;;;;;;0.00;0.00;;;;;19.90;100459.00;;;;5088293;28;20068;-80
2022/03/08 08:37:02;;;;;;;0.00;0.00;;;;;19.90;100465.00;;;;5086892;28;20093;-80
2022/03/08 08:39:32;;;;;;;0.00;0.00;;;;;19.80;100464.00;;;;5103195;28;20075;-80
2022/03/08 08:42:02;;;;;;;0.00;0.00;;;;;19.80;100457.00;;;;5086373;28;20514;-80
2022/03/08 08:44:37;;;;;;;0.00;0.00;;;;;19.80;100480.00;;;;5087947;28;20051;-80
2022/03/08 08:47:08;;;;;;;0.00;0.00;;;;;19.80;100487.00;;;;5088111;28;20113;-80
2022/03/08 08:49:37;;;;;;;0.00;0.00;;;;;19.70;100460.00;;;;5103296;28;20090;-81
2022/03/08 08:52:07;;;;;;;0.00;0.00;;;;;19.70;100468.00;;;;5088118;28;20505;-79
2022/03/08 08:54:36;;;;;;;0.00;0.00;;;;;19.60;100484.00;;;;5103197;28;20055;-80
2022/03/08 08:57:06;;;;;;;0.00;0.00;;;;;19.70;100481.00;;;;5085741;28;20043;-78
2022/03/08 08:59:35;;;;;;;0.00;0.00;;;;;19.60;100504.00;;;;5087615;28;20035;-81
2022/03/08 09:02:05;;;;;;;0.00;0.00;;;;;19.60;100503.00;;;;5087460;28;20052;-85
2022/03/08 09:04:34;;;;;;;0.00;0.00;;;;;19.50;100499.00;;;;5087202;28;20036;-81
2022/03/08 09:07:05;;;;;;;0.00;0.00;;;;;19.60;100502.00;;;;5102571;28;20071;-81
2022/03/08 09:09:35;;;;;;;0.00;0.00;;;;;19.70;100503.00;;;;5103184;28;20052;-81
2022/03/08 09:12:05;;;;;;;0.00;0.00;;;;;19.80;100503.00;;;;5087915;28;20040;-80
2022/03/08 09:14:34;;;;;;;0.00;0.00;;;;;19.80;100505.00;;;;5102290;28;20453;-81
2022/03/08 09:17:04;;;;;;;0.00;0.00;;;;;19.80;100516.00;;;;5102145;28;20060;-81
2022/03/08 09:19:33;;;;;;;0.00;0.00;;;;;19.90;100502.00;;;;5102769;28;20052;-81
2022/03/08 09:22:03;;;;;;;0.00;0.00;;;;;19.90;100529.00;;;;5087340;28;20047;-81
2022/03/08 09:24:35;;;;;;;0.00;0.00;;;;;19.90;100522.00;;;;5087415;28;20090;-81
2022/03/08 09:27:05;;;;;;;0.00;0.00;;;;;19.90;100527.00;;;;5102441;28;20055;-81
2022/03/08 09:29:35;;;;;;;0.00;0.00;;;;;19.80;100510.00;;;;5087140;28;20533;-81
2022/03/08 09:32:04;;;;;;;0.00;0.00;;;;;19.90;100525.00;;;;5101837;28;20056;-81
2022/03/08 09:34:34;;;;;;;0.00;0.00;;;;;19.90;100517.00;;;;5087625;28;20434;-80
2022/03/08 09:37:04;;;;;;;0.10;0.10;;;;;19.90;100519.00;;;;5102404;28;20044;-80
2022/03/08 09:39:34;;;;;;;0.00;0.00;;;;;19.90;100526.00;;;;5068469;28;20048;-80
2022/03/08 09:42:04;;;;;;;;;;;;;19.90;100533.00;;;;5102613;28;20044;-80
2022/03/08 09:44:34;;;;;;;0.00;0.00;;;;;19.80;100508.00;;;;5102267;28;20043;-81
2022/03/08 09:47:05;;;;;;;0.00;0.00;;;;;19.80;100510.00;;;;5085206;28;20048;-81
2022/03/08 09:49:35;;;;;;;0.00;0.00;;;;;19.90;100517.00;;;;5102341;28;20052;-81
2022/03/08 09:52:05;;;;;;;0.00;0.00;;;;;19.90;100524.00;;;;5103803;28;20040;-81
2022/03/08 09:54:34;;;;;;;0.00;0.00;;;;;19.90;100539.00;;;;5104236;28;20044;-80
2022/03/08 09:57:13;;;;;;;0.00;0.00;;;;;19.90;100537.00;;;;5103257;28;20452;-80
2022/03/08 09:59:42;;;;;;;0.00;0.00;;;;;20.00;100526.00;;;;5087238;28;20046;-82
2022/03/08 10:02:14;;;;;;;0.00;0.00;;;;;20.10;100553.00;;;;5102245;28;20044;-81
2022/03/08 10:04:44;;;;;;;0.00;0.00;;;;;20.20;100549.00;;;;5085675;28;20040;-82
2022/03/08 10:07:30;;;;;;;0.00;0.00;;;;;20.40;100533.00;;;;5086139;28;20055;-80
2022/03/08 10:10:00;;;;;;;0.00;0.00;;;;;20.50;100544.00;;;;5101792;28;20070;-81
2022/03/08 10:12:56;;;;;;;0.00;0.00;;;;;20.60;100534.00;;;;5086671;28;20067;-81
2022/03/08 10:15:26;;;;;;;0.00;0.00;;;;;20.70;100537.00;;;;5101735;28;20060;-83
2022/03/08 10:17:56;;;;;;;0.00;0.00;;;;;20.90;100546.00;;;;5101925;28;20066;-81
2022/03/08 10:20:30;;;;;;;0.00;0.00;;;;;21.00;100521.00;;;;5086744;28;20040;-82
2022/03/08 10:23:10;;;;;;;0.00;0.00;;;;;21.10;100542.00;;;;5103138;28;20119;-80
2022/03/08 10:25:41;;;;;;;0.10;0.05;;;;;21.30;100539.00;;;;5085495;28;20044;-81
2022/03/08 10:28:11;;;;;;;0.00;0.00;;;;;21.40;100548.00;;;;5100443;28;20178;-80
2022/03/08 10:30:44;;;;;;;0.00;0.00;;;;;21.80;100530.00;;;;5086893;28;20056;-81
2022/03/08 10:33:36;;;;;;;0.00;0.00;;;;;23.70;100506.00;;;;5086479;28;20122;-80
2022/03/08 10:36:29;;;;;;;0.00;0.00;;;;;23.60;100500.00;;;;5102858;28;20036;-80
2022/03/08 10:39:11;;;;;;;0.00;0.00;;;;;23.40;100531.00;;;;5101474;28;20036;-80
2022/03/08 10:41:50;;;;;;;0.00;0.00;;;;;23.40;100517.00;;;;5101744;28;20541;-79
2022/03/08 10:44:39;;;;;;;0.00;0.00;;;;;24.40;100490.00;;;;5086718;28;20516;-80
2022/03/08 10:47:11;;;;;;;0.00;0.00;;;;;26.70;100441.00;;;;5088507;28;20502;-80
2022/03/08 10:49:56;;;;;;;0.10;0.03;;;;;26.40;100532.00;;;;5087355;28;20048;-79
2022/03/08 10:52:31;;;;;;;0.00;0.00;;;;;25.30;100533.00;;;;5086021;28;20522;-80
2022/03/08 10:55:16;;;;;;;0.00;0.00;;;;;25.30;100541.00;;;;5105352;28;20036;-81
2022/03/08 10:57:53;;;;;;;0.00;0.00;;;;;26.10;100493.00;;;;5105730;28;20040;-83
2022/03/08 11:00:32;;;;;;;0.00;0.00;;;;;26.80;100563.00;;;;5090288;28;20052;-80
2022/03/08 11:03:16;;;;;;;0.00;0.00;;;;;29.10;100351.00;;;;5105607;28;20060;-80
2022/03/08 11:05:51;;;;;;;0.00;0.00;;;;;32.10;100373.00;;;;5104918;28;20105;-83
2022/03/08 11:08:28;;;;;;;0.00;0.00;;;;;29.10;100556.00;;;;5090766;28;20090;-81
2022/03/08 11:10:58;;;;;;;0.00;0.00;;;;;25.60;100575.00;;;;5106884;28;20090;-82
2022/03/08 11:13:30;;;;;;;0.10;0.10;;;;;24.40;100603.00;;;;5090127;28;20044;-79
2022/03/08 11:15:59;;;;;;;0.00;0.00;;;;;24.10;100586.00;;;;5104360;28;20055;-81
2022/03/08 11:18:30;;;;;;;0.00;0.00;;;;;24.00;100605.00;;;;5089682;28;20044;-83
2022/03/08 11:21:01;;;;;;;0.00;0.00;;;;;24.00;100580.00;;;;5088566;28;20051;-81
2022/03/08 11:23:33;;;;;;;3.75;3.40;;;;;24.10;100586.00;;;;5105812;28;20050;-81
2022/03/08 11:26:14;;;;;;;0.00;0.00;;;;;23.90;100610.00;;;;5091259;28;20044;-84
2022/03/08 11:28:49;;;;;;;0.00;0.00;;;;;23.80;100597.00;;;;5089171;28;20039;-81
2022/03/08 11:31:23;;;;;;;0.00;0.00;;;;;23.70;100594.00;;;;5089570;28;20082;-80
2022/03/08 11:34:00;;;;;;;0.00;0.00;;;;;24.00;100569.00;;;;5105074;28;20506;-81
2022/03/08 11:36:45;;;;;;;0.00;0.00;;;;;24.20;100602.00;;;;5104288;28;20052;-81
2022/03/08 11:39:22;;;;;;;0.00;0.00;;;;;24.00;100611.00;;;;5104264;28;20048;-78
2022/03/08 11:42:21;;;;;;;0.00;0.00;;;;;23.90;100620.00;;;;5089648;28;20051;-81
2022/03/08 11:45:01;;;;;;;0.00;0.00;;;;;23.60;100615.00;;;;5087210;28;20536;-81
2022/03/08 11:47:40;;;;;;;0.00;0.00;;;;;23.50;100618.00;;;;5105026;28;20048;-81
2022/03/08 11:50:32;;;;;;;0.00;0.00;;;;;23.70;100616.00;;;;5105108;28;20151;-81
2022/03/08 11:53:17;;;;;;;0.00;0.00;;;;;24.00;100609.00;;;;5104844;28;20051;-81
2022/03/08 11:55:55;;;;;;;0.00;0.00;;;;;23.90;100600.00;;;;5104868;28;20380;-82
2022/03/08 11:58:44;;;;;;;0.00;0.00;;;;;23.90;100605.00;;;;5104473;28;20052;-81
2022/03/08 12:01:32;;;;;;;0.00;0.00;;;;;23.80;100600.00;;;;5104035;28;20511;-81
2022/03/08 12:04:13;;;;;;;0.00;0.00;;;;;24.10;100607.00;;;;5086919;28;20510;-81
2022/03/08 12:06:58;;;;;;;0.00;0.00;;;;;24.30;100600.00;;;;5104485;28;20072;-81
2022/03/08 12:09:28;;;;;;;0.00;0.00;;;;;24.60;100603.00;;;;5104658;28;20051;-81
2022/03/08 12:12:01;;;;;;;0.00;0.00;;;;;24.70;100600.00;;;;5088298;28;20036;-81
2022/03/08 12:14:41;;;;;;;0.00;0.00;;;;;24.90;100606.00;;;;5104384;28;20052;-79
2022/03/08 12:17:13;;;;;;;0.00;0.00;;;;;25.00;100583.00;;;;5088443;28;20048;-81
2022/03/08 12:19:55;;;;;;;0.00;0.00;;;;;25.30;100594.00;;;;5104161;28;20052;-81
2022/03/08 12:22:25;;;;;;;0.20;0.10;;;;;25.60;100613.00;;;;5104145;28;20412;-81
2022/03/08 12:24:57;;;;;;;0.00;0.00;;;;;26.60;100564.00;;;;5088796;28;20040;-81
2022/03/08 12:27:48;;;;;;;0.00;0.00;;;;;26.30;100637.00;;;;5104565;28;20055;-81
2022/03/08 12:30:18;;;;;;;0.00;0.00;;;;;25.60;100632.00;;;;5104129;28;20071;-81
2022/03/08 12:32:47;;;;;;;0.00;0.00;;;;;25.30;100630.00;;;;5088174;28;20040;-81
2022/03/08 12:35:23;;;;;;;0.00;0.00;;;;;25.20;100631.00;;;;5088058;28;20040;-81
2022/03/08 12:37:58;;;;;;;0.00;0.00;;;;;25.30;100615.00;;;;5088428;28;20798;-81
2022/03/08 12:40:40;;;;;;;0.00;0.00;;;;;25.50;100620.00;;;;5103957;28;20408;-81
2022/03/08 12:43:12;;;;;;;0.00;0.00;;;;;25.50;100619.00;;;;5070637;28;20567;-81